createdAt,value
2017-09-21T00:00:03.579Z,9.6
2017-09-21T00:15:03.252Z,9.6
2017-09-21T00:30:03.211Z,9.6
2017-09-21T00:45:02.942Z,9.5
2017-09-21T01:00:02.734Z,9.4
2017-09-21T01:15:03.659Z,9.4
2017-09-21T01:30:03.847Z,9.4
2017-09-21T01:45:03.213Z,9.4
2017-09-21T02:00:02.946Z,9.3
2017-09-21T02:15:02.598Z,9.4
2017-09-21T02:30:03.393Z,9.4
2017-09-21T02:45:03.172Z,9.2
2017-09-21T03:00:03.017Z,9.2
2017-09-21T03:15:02.935Z,9.3
2017-09-21T03:30:02.692Z,9.2
2017-09-21T03:45:03.362Z,9.1
2017-09-21T04:00:03.012Z,9.1
2017-09-21T04:15:02.701Z,9.1
2017-09-21T04:30:03.563Z,9
2017-09-21T04:45:03.151Z,8.9
2017-09-21T05:00:03.032Z,8.9
2017-09-21T05:15:02.622Z,9
2017-09-21T05:30:03.383Z,9
2017-09-21T05:45:03.014Z,9.1
2017-09-21T06:00:02.767Z,9.2
2017-09-21T06:15:04.377Z,9.4
2017-09-21T06:30:03.671Z,9.7
2017-09-21T06:45:03.469Z,9.7
2017-09-21T07:00:03.971Z,9.9
2017-09-21T07:15:02.677Z,10.2
2017-09-21T07:30:03.422Z,10.2
2017-09-21T07:45:03.255Z,10.5
2017-09-21T08:00:03.379Z,11.1
2017-09-21T08:15:04.084Z,11.9
2017-09-21T08:30:04.149Z,12.2
2017-09-21T08:45:04.505Z,12.2
2017-09-21T09:00:03.521Z,12.6
2017-09-21T09:15:04.045Z,12.9
2017-09-21T09:30:03.051Z,13.6
2017-09-21T09:45:02.892Z,13.3
2017-09-21T10:00:03.627Z,13.9
2017-09-21T10:15:03.231Z,14.5
2017-09-21T10:30:03.590Z,14.6
2017-09-21T10:45:07.043Z,15
2017-09-21T11:00:06.489Z,15.3
2017-09-21T11:15:04.391Z,17.1
2017-09-21T11:30:03.406Z,17.9
2017-09-21T11:45:03.640Z,17.2
2017-09-21T12:00:08.262Z,15.9
2017-09-21T12:15:02.941Z,15.4
2017-09-21T12:30:03.118Z,15.2
2017-09-21T12:45:04.450Z,15.8
2017-09-21T13:00:07.112Z,15.5
2017-09-21T13:15:03.079Z,16.2
2017-09-21T13:30:03.235Z,16.5
2017-09-21T13:45:03.335Z,17.2
2017-09-21T14:00:03.379Z,17.1
2017-09-21T14:15:04.488Z,16
2017-09-21T14:30:02.729Z,17.1
2017-09-21T14:45:03.389Z,17.6
2017-09-21T15:00:03.367Z,17.9
2017-09-21T15:15:03.235Z,16.5
2017-09-21T15:30:02.910Z,16.4
2017-09-21T15:45:03.929Z,15.8
2017-09-21T16:00:03.733Z,15.4
2017-09-21T16:15:03.721Z,15
2017-09-21T16:30:03.625Z,14.4
2017-09-21T16:45:03.432Z,13.6
2017-09-21T17:00:03.314Z,12.9
2017-09-21T17:15:03.255Z,12.4
2017-09-21T17:30:03.593Z,12
2017-09-21T17:45:03.224Z,11.4
2017-09-21T18:00:02.842Z,11.1
2017-09-21T18:15:03.545Z,10.9
2017-09-21T18:30:03.599Z,10.7
2017-09-21T18:45:03.520Z,10.1
2017-09-21T19:00:03.753Z,9.9
2017-09-21T19:15:03.455Z,9.8
2017-09-21T19:30:03.492Z,9.4
2017-09-21T19:45:03.473Z,9.5
2017-09-21T20:00:03.535Z,9.2
2017-09-21T20:15:03.511Z,9.2
2017-09-21T20:30:03.271Z,8.9
2017-09-21T20:45:02.919Z,8.7
2017-09-21T21:00:02.718Z,8.7
2017-09-21T21:15:03.443Z,8.5
2017-09-21T21:30:03.197Z,8.2
2017-09-21T21:45:03.101Z,7.9
2017-09-21T22:00:02.717Z,7.8
2017-09-21T22:15:03.737Z,7.8
2017-09-21T22:30:03.866Z,7.6
2017-09-21T22:45:03.481Z,7.4
2017-09-21T23:00:03.326Z,7.3
2017-09-21T23:15:03.034Z,7.1
2017-09-21T23:30:02.792Z,6.9
2017-09-21T23:45:03.548Z,6.9
